Time,TemperatureF,DewpointF,PressureIn,WindDirection,WindDirectionDegrees,WindSpeedMPH,WindSpeedGustMPH,Humidity,HourlyPrecipIn,Conditions,Clouds,dailyrainin,SoftwareType,DateUTC
2013-02-11 00:00:00,19.1,9.4,30.30,North,0,0.0,0.0,79,-99.99,,,-99.99,PWS SA v1.10,2013-02-11 05:00:00,
2013-02-11 00:05:00,19.0,9.2,30.30,North,0,0.0,0.0,79,-99.99,,,-99.99,PWS SA v1.10,2013-02-11 05:05:00,
2013-02-11 00:10:00,18.9,9.2,30.29,North,0,0.0,0.0,79,-99.99,,,-99.99,PWS SA v1.10,2013-02-11 05:10:00,
2013-02-11 00:15:00,18.8,9.5,30.29,North,0,0.0,0.0,81,-99.99,,,-99.99,PWS SA v1.10,2013-02-11 05:15:00,
2013-02-11 00:20:00,18.8,9.6,30.30,North,0,0.0,0.0,81,-99.99,,,-99.99,PWS SA v1.10,2013-02-11 05:20:00,
2013-02-11 00:25:00,18.9,9.6,30.29,North,0,0.0,0.0,81,-99.99,,,-99.99,PWS SA v1.10,2013-02-11 05:25:00,
2013-02-11 00:30:00,18.8,9.6,30.29,North,0,0.0,0.0,81,-99.99,,,-99.99,PWS SA v1.10,2013-02-11 05:30:00,
2013-02-11 00:35:00,18.9,9.6,30.29,North,0,0.0,0.0,81,-99.99,,,-99.99,PWS SA v1.10,2013-02-11 05:35:00,
2013-02-11 00:40:00,18.8,9.6,30.29,North,0,0.0,0.0,81,-99.99,,,-99.99,PWS SA v1.10,2013-02-11 05:40:00,
2013-02-11 00:50:00,19.1,10.0,30.29,North,0,0.0,0.0,82,-99.99,,,-99.99,PWS SA v1.10,2013-02-11 05:50:00,
2013-02-11 00:55:00,19.2,10.2,30.28,North,0,0.0,0.0,82,-99.99,,,-99.99,PWS SA v1.10,2013-02-11 05:55:00,
2013-02-11 01:00:00,19.1,10.1,30.28,North,0,0.0,0.0,82,-99.99,,,-99.99,PWS SA v1.10,2013-02-11 06:00:00,
2013-02-11 01:05:00,19.2,10.2,30.28,North,0,0.0,0.0,82,-99.99,,,-99.99,PWS SA v1.10,2013-02-11 06:05:00,
2013-02-11 01:15:00,19.2,10.7,30.28,North,0,0.0,0.0,84,-99.99,,,-99.99,PWS SA v1.10,2013-02-11 06:15:00,
2013-02-11 01:20:00,19.1,10.0,30.27,North,0,0.0,0.0,82,-99.99,,,-99.99,PWS SA v1.10,2013-02-11 06:20:00,
2013-02-11 01:25:00,19.2,10.3,30.28,North,0,0.0,0.0,82,-99.99,,,-99.99,PWS SA v1.10,2013-02-11 06:25:00,
2013-02-11 01:30:00,19.2,10.2,30.27,North,0,0.0,0.0,82,-99.99,,,-99.99,PWS SA v1.10,2013-02-11 06:30:00,
2013-02-11 01:35:00,19.5,10.9,30.27,North,0,0.0,0.0,84,-99.99,,,-99.99,PWS SA v1.10,2013-02-11 06:35:00,
2013-02-11 01:40:00,19.5,10.8,30.27,North,0,0.0,0.0,83,-99.99,,,-99.99,PWS SA v1.10,2013-02-11 06:40:00,
2013-02-11 01:45:00,19.6,10.7,30.26,North,0,0.0,0.0,83,-99.99,,,-99.99,PWS SA v1.10,2013-02-11 06:45:00,
2013-02-11 01:50:00,19.6,10.6,30.25,North,0,0.0,0.0,82,-99.99,,,-99.99,PWS SA v1.10,2013-02-11 06:50:00,
2013-02-11 02:00:00,19.6,10.8,30.26,North,0,0.0,0.0,83,-99.99,,,-99.99,PWS SA v1.10,2013-02-11 07:00:00,
2013-02-11 02:05:00,19.9,11.5,30.25,North,0,0.0,0.0,84,-99.99,,,-99.99,PWS SA v1.10,2013-02-11 07:05:00,
2013-02-11 02:15:00,20.1,10.8,30.25,North,0,0.0,0.0,81,-99.99,,,-99.99,PWS SA v1.10,2013-02-11 07:15:00,
2013-02-11 02:20:00,20.1,10.8,30.25,North,0,0.0,0.0,81,-99.99,,,-99.99,PWS SA v1.10,2013-02-11 07:20:00,
2013-02-11 02:25:00,20.0,10.8,30.25,North,0,0.0,0.0,81,-99.99,,,-99.99,PWS SA v1.10,2013-02-11 07:25:00,
2013-02-11 02:30:00,20.1,10.9,30.24,North,0,0.0,0.0,81,-99.99,,,-99.99,PWS SA v1.10,2013-02-11 07:30:00,
2013-02-11 02:40:00,20.2,11.2,30.23,North,0,0.0,0.0,82,-99.99,,,-99.99,PWS SA v1.10,2013-02-11 07:40:00,
2013-02-11 02:45:00,20.3,11.2,30.24,North,0,0.0,0.0,82,-99.99,,,-99.99,PWS SA v1.10,2013-02-11 07:45:00,
2013-02-11 02:50:00,20.3,11.4,30.23,North,0,0.0,0.0,83,-99.99,,,-99.99,PWS SA v1.10,2013-02-11 07:50:00,
2013-02-11 02:55:00,20.5,11.7,30.23,North,0,0.0,0.0,83,-99.99,,,-99.99,PWS SA v1.10,2013-02-11 07:55:00,
2013-02-11 03:00:00,20.8,11.8,30.24,North,0,0.0,0.0,82,-99.99,,,-99.99,PWS SA v1.10,2013-02-11 08:00:00,
2013-02-11 03:05:00,20.9,12.0,30.24,North,0,0.0,0.0,82,-99.99,,,-99.99,PWS SA v1.10,2013-02-11 08:05:00,
2013-02-11 03:10:00,21.1,12.1,30.24,North,0,0.0,0.0,82,-99.99,,,-99.99,PWS SA v1.10,2013-02-11 08:10:00,
2013-02-11 03:20:00,21.6,12.7,30.23,North,0,0.0,0.0,82,-99.99,,,-99.99,PWS SA v1.10,2013-02-11 08:20:00,
2013-02-11 03:25:00,21.8,13.0,30.23,North,0,0.0,0.0,83,-99.99,,,-99.99,PWS SA v1.10,2013-02-11 08:25:00,
2013-02-11 03:30:00,22.0,13.0,30.23,North,0,0.0,0.0,82,-99.99,,,-99.99,PWS SA v1.10,2013-02-11 08:30:00,
2013-02-11 03:35:00,22.3,13.3,30.22,North,0,0.0,0.0,82,-99.99,,,-99.99,PWS SA v1.10,2013-02-11 08:35:00,
2013-02-11 03:40:00,22.3,13.2,30.22,North,0,0.0,0.0,82,-99.99,,,-99.99,PWS SA v1.10,2013-02-11 08:40:00,
2013-02-11 03:50:00,22.5,13.3,30.22,North,0,0.0,0.0,82,-99.99,,,-99.99,PWS SA v1.10,2013-02-11 08:50:00,
2013-02-11 04:00:00,22.7,13.7,30.22,North,0,0.0,0.0,82,-99.99,,,-99.99,PWS SA v1.10,2013-02-11 09:00:00,
2013-02-11 04:05:00,22.8,13.6,30.22,North,0,0.0,0.0,82,-99.99,,,-99.99,PWS SA v1.10,2013-02-11 09:05:00,
2013-02-11 04:15:00,22.8,13.6,30.21,North,0,0.0,0.0,81,-99.99,,,-99.99,PWS SA v1.10,2013-02-11 09:15:00,
2013-02-11 04:20:00,22.9,13.8,30.21,North,0,0.0,0.0,82,-99.99,,,-99.99,PWS SA v1.10,2013-02-11 09:20:00,
2013-02-11 04:25:00,23.1,14.0,30.21,North,0,0.0,0.0,82,-99.99,,,-99.99,PWS SA v1.10,2013-02-11 09:25:00,
2013-02-11 04:30:00,23.1,13.9,30.21,North,0,0.0,0.0,82,-99.99,,,-99.99,PWS SA v1.10,2013-02-11 09:30:00,
2013-02-11 04:35:00,23.2,14.0,30.21,North,0,0.0,0.0,82,-99.99,,,-99.99,PWS SA v1.10,2013-02-11 09:35:00,
2013-02-11 04:40:00,23.1,13.9,30.20,North,0,0.0,0.0,82,-99.99,,,-99.99,PWS SA v1.10,2013-02-11 09:40:00,
2013-02-11 04:45:00,23.2,14.0,30.19,North,0,0.0,0.0,81,-99.99,,,-99.99,PWS SA v1.10,2013-02-11 09:45:00,
2013-02-11 04:50:00,23.3,14.2,30.19,North,0,0.0,0.0,82,-99.99,,,-99.99,PWS SA v1.10,2013-02-11 09:50:00,
2013-02-11 04:55:00,23.3,14.2,30.19,North,0,0.0,0.0,82,-99.99,,,-99.99,PWS SA v1.10,2013-02-11 09:55:00,
2013-02-11 05:00:00,23.5,14.3,30.19,North,0,0.0,0.0,82,-99.99,,,-99.99,PWS SA v1.10,2013-02-11 10:00:00,
2013-02-11 05:05:00,23.5,14.1,30.19,North,0,0.0,0.0,81,-99.99,,,-99.99,PWS SA v1.10,2013-02-11 10:05:00,
2013-02-11 05:10:00,23.7,14.5,30.19,North,0,0.0,0.0,82,-99.99,,,-99.99,PWS SA v1.10,2013-02-11 10:10:00,
2013-02-11 05:15:00,23.7,14.6,30.19,North,0,0.0,0.0,82,-99.99,,,-99.99,PWS SA v1.10,2013-02-11 10:15:00,
2013-02-11 05:20:00,23.7,14.5,30.19,North,0,0.0,0.0,81,-99.99,,,-99.99,PWS SA v1.10,2013-02-11 10:20:00,
2013-02-11 05:25:00,23.9,14.6,30.18,North,0,0.0,0.0,81,-99.99,,,-99.99,PWS SA v1.10,2013-02-11 10:25:00,
2013-02-11 05:30:00,24.0,14.8,30.18,North,0,0.0,0.0,82,-99.99,,,-99.99,PWS SA v1.10,2013-02-11 10:30:00,
2013-02-11 05:35:00,24.2,15.6,30.19,North,0,0.0,0.0,84,-99.99,,,-99.99,PWS SA v1.10,2013-02-11 10:35:00,
2013-02-11 05:40:00,24.2,15.1,30.18,North,0,0.0,0.0,82,-99.99,,,-99.99,PWS SA v1.10,2013-02-11 10:40:00,
2013-02-11 05:45:00,24.2,14.8,30.19,North,0,0.0,0.0,81,-99.99,,,-99.99,PWS SA v1.10,2013-02-11 10:45:00,
2013-02-11 05:50:00,24.2,14.9,30.19,North,0,0.0,0.0,81,-99.99,,,-99.99,PWS SA v1.10,2013-02-11 10:50:00,
2013-02-11 05:55:00,24.2,14.9,30.19,North,0,0.0,0.0,81,-99.99,,,-99.99,PWS SA v1.10,2013-02-11 10:55:00,
2013-02-11 06:00:00,24.4,15.0,30.19,North,0,0.0,0.0,81,-99.99,,,-99.99,PWS SA v1.10,2013-02-11 11:00:00,
2013-02-11 06:05:00,24.4,15.3,30.18,North,0,0.0,0.0,82,-99.99,,,-99.99,PWS SA v1.10,2013-02-11 11:05:00,
2013-02-11 06:10:00,24.5,15.5,30.17,North,0,0.0,0.0,82,-99.99,,,-99.99,PWS SA v1.10,2013-02-11 11:10:00,
2013-02-11 06:15:00,24.6,15.5,30.17,North,0,0.0,0.0,82,-99.99,,,-99.99,PWS SA v1.10,2013-02-11 11:15:00,
2013-02-11 06:20:00,24.7,15.7,30.16,North,0,0.0,0.0,82,-99.99,,,-99.99,PWS SA v1.10,2013-02-11 11:20:00,
2013-02-11 06:25:00,24.8,15.7,30.16,North,0,0.0,0.0,82,-99.99,,,-99.99,PWS SA v1.10,2013-02-11 11:25:00,
2013-02-11 06:30:00,25.0,16.3,30.16,North,0,0.0,0.0,83,-99.99,,,-99.99,PWS SA v1.10,2013-02-11 11:30:00,
2013-02-11 06:35:00,25.2,16.3,30.17,North,0,0.0,0.0,83,-99.99,,,-99.99,PWS SA v1.10,2013-02-11 11:35:00,
2013-02-11 06:40:00,25.2,16.1,30.16,North,0,0.0,0.0,82,-99.99,,,-99.99,PWS SA v1.10,2013-02-11 11:40:00,
2013-02-11 06:45:00,25.3,16.2,30.16,North,0,0.0,0.0,82,-99.99,,,-99.99,PWS SA v1.10,2013-02-11 11:45:00,
2013-02-11 06:50:00,25.5,16.4,30.16,North,0,0.0,0.0,82,-99.99,,,-99.99,PWS SA v1.10,2013-02-11 11:50:00,
2013-02-11 06:55:00,25.5,16.5,30.16,North,0,0.0,0.0,82,-99.99,,,-99.99,PWS SA v1.10,2013-02-11 11:55:00,
2013-02-11 07:00:00,25.6,16.6,30.16,North,0,0.0,0.0,82,-99.99,,,-99.99,PWS SA v1.10,2013-02-11 12:00:00,
2013-02-11 07:05:00,25.9,17.1,30.16,North,0,0.0,0.0,83,-99.99,,,-99.99,PWS SA v1.10,2013-02-11 12:05:00,
2013-02-11 07:10:00,26.1,17.3,30.16,North,0,0.0,0.0,83,-99.99,,,-99.99,PWS SA v1.10,2013-02-11 12:10:00,
2013-02-11 07:15:00,26.3,17.4,30.16,North,0,0.0,0.0,83,-99.99,,,-99.99,PWS SA v1.10,2013-02-11 12:15:00,
2013-02-11 07:20:00,26.5,17.8,30.15,North,0,0.0,0.0,84,-99.99,,,-99.99,PWS SA v1.10,2013-02-11 12:20:00,
2013-02-11 07:25:00,26.7,18.0,30.15,North,0,0.0,0.0,84,-99.99,,,-99.99,PWS SA v1.10,2013-02-11 12:25:00,
2013-02-11 07:30:00,26.9,18.4,30.15,North,0,0.0,0.0,84,-99.99,,,-99.99,PWS SA v1.10,2013-02-11 12:30:00,
2013-02-11 07:35:00,27.3,18.4,30.14,North,0,0.0,0.0,83,-99.99,,,-99.99,PWS SA v1.10,2013-02-11 12:35:00,
2013-02-11 07:40:00,27.4,18.6,30.14,North,0,0.0,0.0,83,-99.99,,,-99.99,PWS SA v1.10,2013-02-11 12:40:00,
2013-02-11 07:45:00,27.4,18.6,30.14,North,0,0.0,0.0,83,-99.99,,,-99.99,PWS SA v1.10,2013-02-11 12:45:00,
2013-02-11 07:50:00,28.1,23.4,30.14,North,0,0.0,0.0,83,-99.99,,,-99.99,PWS SA v1.10,2013-02-11 12:50:00,
2013-02-11 07:55:00,28.2,23.3,30.13,North,0,0.0,0.0,82,-99.99,,,-99.99,PWS SA v1.10,2013-02-11 12:55:00,
2013-02-11 08:00:00,28.7,23.7,30.13,North,0,0.0,0.0,82,-99.99,,,-99.99,PWS SA v1.10,2013-02-11 13:00:00,
2013-02-11 08:05:00,29.0,23.9,30.13,North,0,0.0,0.0,82,-99.99,,,-99.99,PWS SA v1.10,2013-02-11 13:05:00,
2013-02-11 08:10:00,29.3,24.3,30.12,North,0,0.0,0.0,82,-99.99,,,-99.99,PWS SA v1.10,2013-02-11 13:10:00,
2013-02-11 08:15:00,29.6,24.4,30.12,North,0,0.0,0.0,82,-99.99,,,-99.99,PWS SA v1.10,2013-02-11 13:15:00,
2013-02-11 08:20:00,29.5,24.4,30.12,North,0,0.0,0.0,81,-99.99,,,-99.99,PWS SA v1.10,2013-02-11 13:20:00,
2013-02-11 08:25:00,29.8,24.8,30.12,North,0,0.0,0.0,82,-99.99,,,-99.99,PWS SA v1.10,2013-02-11 13:25:00,
2013-02-11 08:30:00,29.9,24.6,30.12,North,0,0.0,0.0,82,-99.99,,,-99.99,PWS SA v1.10,2013-02-11 13:30:00,
2013-02-11 08:35:00,29.9,24.8,30.11,North,0,0.0,0.0,81,-99.99,,,-99.99,PWS SA v1.10,2013-02-11 13:35:00,
2013-02-11 08:40:00,30.1,24.9,30.10,North,0,0.0,0.0,81,-99.99,,,-99.99,PWS SA v1.10,2013-02-11 13:40:00,
2013-02-11 08:45:00,30.4,25.2,30.10,North,0,0.0,0.0,81,-99.99,,,-99.99,PWS SA v1.10,2013-02-11 13:45:00,
2013-02-11 08:50:00,30.7,25.4,30.09,North,0,0.0,0.0,81,-99.99,,,-99.99,PWS SA v1.10,2013-02-11 13:50:00,
2013-02-11 08:55:00,30.8,25.8,30.09,North,0,0.0,0.0,81,-99.99,,,-99.99,PWS SA v1.10,2013-02-11 13:55:00,
2013-02-11 09:00:00,31.1,26.2,30.09,North,0,0.0,0.0,82,-99.99,,,-99.99,PWS SA v1.10,2013-02-11 14:00:00,
2013-02-11 09:05:00,31.2,27.2,30.08,North,0,0.0,0.0,85,-99.99,,,-99.99,PWS SA v1.10,2013-02-11 14:05:00,
2013-02-11 09:10:00,31.6,27.4,30.08,North,0,0.0,0.0,85,-99.99,,,-99.99,PWS SA v1.10,2013-02-11 14:10:00,
2013-02-11 09:15:00,31.9,27.8,30.07,North,0,0.0,0.0,85,-99.99,,,-99.99,PWS SA v1.10,2013-02-11 14:15:00,
2013-02-11 09:20:00,32.4,28.2,30.06,North,0,0.0,0.0,85,-99.99,,,-99.99,PWS SA v1.10,2013-02-11 14:20:00,
2013-02-11 09:25:00,32.3,28.9,30.06,North,0,0.0,0.0,87,-99.99,,,-99.99,PWS SA v1.10,2013-02-11 14:25:00,
2013-02-11 09:30:00,32.6,29.3,30.05,North,0,0.0,0.0,88,-99.99,,,-99.99,PWS SA v1.10,2013-02-11 14:30:00,
2013-02-11 09:35:00,33.2,30.2,30.05,SE,143,1.7,3.0,89,-99.99,,,-99.99,PWS SA v1.10,2013-02-11 14:35:00,
2013-02-11 09:40:00,33.5,30.5,30.05,North,0,0.0,3.0,89,-99.99,,,-99.99,PWS SA v1.10,2013-02-11 14:40:00,
2013-02-11 09:45:00,33.9,30.9,30.03,SW,224,6.8,6.8,89,-99.99,,,-99.99,PWS SA v1.10,2013-02-11 14:45:00,
2013-02-11 09:50:00,34.1,31.7,30.03,SSE,156,1.7,6.0,90,-99.99,,,-99.99,PWS SA v1.10,2013-02-11 14:50:00,
2013-02-11 09:55:00,34.4,31.8,30.03,North,0,0.0,6.0,90,-99.99,,,-99.99,PWS SA v1.10,2013-02-11 14:55:00,
2013-02-11 10:00:00,34.6,32.2,30.02,WSW,239,3.4,3.4,90,-99.99,,,-99.99,PWS SA v1.10,2013-02-11 15:00:00,
2013-02-11 10:05:00,34.8,32.5,30.01,North,0,0.0,3.0,91,-99.99,,,-99.99,PWS SA v1.10,2013-02-11 15:05:00,
2013-02-11 10:10:00,34.8,32.4,30.01,SW,214,5.1,5.1,91,-99.99,,,-99.99,PWS SA v1.10,2013-02-11 15:10:00,
2013-02-11 10:15:00,35.3,33.1,30.00,North,0,0.0,5.0,91,-99.99,,,-99.99,PWS SA v1.10,2013-02-11 15:15:00,
2013-02-11 10:20:00,35.4,33.3,30.00,North,0,0.0,5.0,91,-99.99,,,-99.99,PWS SA v1.10,2013-02-11 15:20:00,
2013-02-11 10:25:00,36.5,33.7,30.00,North,0,0.0,5.0,90,-99.99,,,-99.99,PWS SA v1.10,2013-02-11 15:25:00,
2013-02-11 10:30:00,36.3,33.6,30.00,North,0,0.0,6.0,90,-99.99,,,-99.99,PWS SA v1.10,2013-02-11 15:30:00,
2013-02-11 10:35:00,36.6,33.9,30.00,North,0,0.0,6.0,90,-99.99,,,-99.99,PWS SA v1.10,2013-02-11 15:35:00,
2013-02-11 10:40:00,36.6,34.0,29.99,South,173,1.7,6.0,90,-99.99,,,-99.99,PWS SA v1.10,2013-02-11 15:40:00,
2013-02-11 10:45:00,37.1,34.4,29.99,North,0,0.0,6.0,90,-99.99,,,-99.99,PWS SA v1.10,2013-02-11 15:45:00,
2013-02-11 10:50:00,37.2,34.4,29.99,North,0,0.0,3.0,90,-99.99,,,-99.99,PWS SA v1.10,2013-02-11 15:50:00,
2013-02-11 10:55:00,37.3,34.3,29.98,North,0,0.0,5.0,89,-99.99,,,-99.99,PWS SA v1.10,2013-02-11 15:55:00,
2013-02-11 11:00:00,37.4,34.5,29.97,North,0,0.0,5.0,90,-99.99,,,-99.99,PWS SA v1.10,2013-02-11 16:00:00,
2013-02-11 11:05:00,37.2,34.4,29.96,SSE,154,3.4,5.0,90,-99.99,,,-99.99,PWS SA v1.10,2013-02-11 16:05:00,
2013-02-11 11:10:00,37.3,35.0,29.96,North,0,0.0,3.0,91,-99.99,,,-99.99,PWS SA v1.10,2013-02-11 16:10:00,
2013-02-11 11:15:00,37.4,35.1,29.95,North,0,0.0,3.0,91,-99.99,,,-99.99,PWS SA v1.10,2013-02-11 16:15:00,
2013-02-11 11:20:00,38.0,35.7,29.95,North,0,0.0,1.0,91,-99.99,,,-99.99,PWS SA v1.10,2013-02-11 16:20:00,
2013-02-11 11:25:00,38.3,35.6,29.95,North,0,0.0,1.0,91,-99.99,,,-99.99,PWS SA v1.10,2013-02-11 16:25:00,
2013-02-11 11:30:00,38.4,35.8,29.94,North,0,0.0,1.0,90,-99.99,,,-99.99,PWS SA v1.10,2013-02-11 16:30:00,
2013-02-11 11:35:00,38.6,36.0,29.93,North,0,0.0,1.0,91,-99.99,,,-99.99,PWS SA v1.10,2013-02-11 16:35:00,
2013-02-11 11:40:00,39.0,36.1,29.92,North,0,0.0,1.0,90,-99.99,,,-99.99,PWS SA v1.10,2013-02-11 16:40:00,
2013-02-11 11:45:00,39.0,36.4,29.91,North,0,0.0,5.0,90,-99.99,,,-99.99,PWS SA v1.10,2013-02-11 16:45:00,
2013-02-11 11:50:00,39.4,36.3,29.90,SSE,162,3.4,5.0,89,-99.99,,,-99.99,PWS SA v1.10,2013-02-11 16:50:00,
2013-02-11 11:55:00,39.3,36.5,29.90,North,0,0.0,5.0,90,-99.99,,,-99.99,PWS SA v1.10,2013-02-11 16:55:00,
2013-02-11 12:00:00,38.9,36.3,29.89,SE,139,1.7,5.0,90,-99.99,,,-99.99,PWS SA v1.10,2013-02-11 17:00:00,
2013-02-11 12:05:00,39.4,36.6,29.89,North,0,0.0,5.0,90,-99.99,,,-99.99,PWS SA v1.10,2013-02-11 17:05:00,
2013-02-11 12:10:00,39.4,36.6,29.88,North,0,0.0,3.0,90,-99.99,,,-99.99,PWS SA v1.10,2013-02-11 17:10:00,
2013-02-11 12:15:00,39.4,36.5,29.87,SW,215,3.4,3.4,90,-99.99,,,-99.99,PWS SA v1.10,2013-02-11 17:15:00,
2013-02-11 12:20:00,39.4,36.8,29.87,North,0,0.0,3.0,91,-99.99,,,-99.99,PWS SA v1.10,2013-02-11 17:20:00,
2013-02-11 12:25:00,39.5,36.9,29.86,North,0,0.0,3.0,91,-99.99,,,-99.99,PWS SA v1.10,2013-02-11 17:25:00,
2013-02-11 12:30:00,39.7,37.2,29.86,North,0,0.0,1.0,91,-99.99,,,-99.99,PWS SA v1.10,2013-02-11 17:30:00,
2013-02-11 12:35:00,39.8,36.8,29.85,North,0,0.0,0.0,90,-99.99,,,-99.99,PWS SA v1.10,2013-02-11 17:35:00,
2013-02-11 12:40:00,39.6,36.7,29.85,North,0,0.0,0.0,90,-99.99,,,-99.99,PWS SA v1.10,2013-02-11 17:40:00,
2013-02-11 12:45:00,39.5,36.7,29.85,North,0,0.0,0.0,90,-99.99,,,-99.99,PWS SA v1.10,2013-02-11 17:45:00,
2013-02-11 12:50:00,39.5,36.6,29.84,North,0,0.0,0.0,90,-99.99,,,-99.99,PWS SA v1.10,2013-02-11 17:50:00,
2013-02-11 12:55:00,39.7,36.8,29.83,North,0,0.0,0.0,91,-99.99,,,-99.99,PWS SA v1.10,2013-02-11 17:55:00,
2013-02-11 13:00:00,39.8,36.9,29.83,North,0,0.0,0.0,90,-99.99,,,-99.99,PWS SA v1.10,2013-02-11 18:00:00,
2013-02-11 13:05:00,40.0,37.0,29.83,North,0,0.0,1.0,90,-99.99,,,-99.99,PWS SA v1.10,2013-02-11 18:05:00,
2013-02-11 13:10:00,40.0,37.1,29.82,North,0,0.0,1.0,90,-99.99,,,-99.99,PWS SA v1.10,2013-02-11 18:10:00,
2013-02-11 13:15:00,40.0,37.1,29.82,North,0,0.0,1.0,90,-99.99,,,-99.99,PWS SA v1.10,2013-02-11 18:15:00,
2013-02-11 13:20:00,39.7,36.8,29.81,SE,131,3.4,3.4,90,-99.99,,,-99.99,PWS SA v1.10,2013-02-11 18:20:00,
2013-02-11 13:25:00,39.9,37.3,29.80,North,0,0.0,3.0,91,-99.99,,,-99.99,PWS SA v1.10,2013-02-11 18:25:00,
2013-02-11 13:30:00,40.0,37.6,29.80,North,0,0.0,3.0,92,-99.99,,,-99.99,PWS SA v1.10,2013-02-11 18:30:00,
2013-02-11 13:35:00,40.1,37.6,29.79,North,0,0.0,1.0,92,-99.99,,,-99.99,PWS SA v1.10,2013-02-11 18:35:00,
2013-02-11 13:40:00,40.4,37.9,29.79,North,0,0.0,0.0,92,-99.99,,,-99.99,PWS SA v1.10,2013-02-11 18:40:00,
2013-02-11 13:45:00,40.4,37.8,29.78,North,0,0.0,1.0,91,-99.99,,,-99.99,PWS SA v1.10,2013-02-11 18:45:00,
2013-02-11 13:50:00,40.4,38.0,29.78,North,0,0.0,1.0,92,-99.99,,,-99.99,PWS SA v1.10,2013-02-11 18:50:00,
2013-02-11 13:55:00,40.3,38.2,29.77,SE,130,1.7,1.7,93,-99.99,,,-99.99,PWS SA v1.10,2013-02-11 18:55:00,
2013-02-11 14:00:00,40.7,38.7,29.77,SW,220,3.4,3.4,93,-99.99,,,-99.99,PWS SA v1.10,2013-02-11 19:00:00,
2013-02-11 14:05:00,40.7,39.4,29.76,SW,229,3.4,3.4,95,-99.99,,,-99.99,PWS SA v1.10,2013-02-11 19:05:00,
2013-02-11 14:10:00,41.5,40.5,29.76,North,0,0.0,3.0,97,-99.99,,,-99.99,PWS SA v1.10,2013-02-11 19:10:00,
2013-02-11 14:15:00,41.9,41.0,29.76,West,263,6.8,6.8,98,-99.99,,,-99.99,PWS SA v1.10,2013-02-11 19:15:00,
2013-02-11 14:20:00,42.3,41.2,29.75,SSW,211,1.7,6.0,96,-99.99,,,-99.99,PWS SA v1.10,2013-02-11 19:20:00,
2013-02-11 14:25:00,42.3,41.3,29.75,WSW,239,1.7,6.0,97,-99.99,,,-99.99,PWS SA v1.10,2013-02-11 19:25:00,
2013-02-11 14:30:00,42.8,41.7,29.74,WSW,252,1.7,5.0,96,-99.99,,,-99.99,PWS SA v1.10,2013-02-11 19:30:00,
2013-02-11 14:35:00,42.9,41.8,29.74,WSW,251,3.4,5.0,96,-99.99,,,-99.99,PWS SA v1.10,2013-02-11 19:35:00,
2013-02-11 14:40:00,43.4,42.5,29.74,North,0,0.0,3.0,98,-99.99,,,-99.99,PWS SA v1.10,2013-02-11 19:40:00,
2013-02-11 14:45:00,43.4,42.4,29.74,North,0,0.0,3.0,97,-99.99,,,-99.99,PWS SA v1.10,2013-02-11 19:45:00,
2013-02-11 14:50:00,43.3,42.4,29.73,SE,141,1.7,6.0,97,-99.99,,,-99.99,PWS SA v1.10,2013-02-11 19:50:00,
2013-02-11 14:55:00,43.5,42.3,29.73,North,0,0.0,6.0,96,-99.99,,,-99.99,PWS SA v1.10,2013-02-11 19:55:00,
2013-02-11 15:00:00,43.3,42.1,29.74,SE,125,3.4,6.0,96,-99.99,,,-99.99,PWS SA v1.10,2013-02-11 20:00:00,
2013-02-11 15:05:00,43.3,41.9,29.73,North,0,0.0,3.0,95,-99.99,,,-99.99,PWS SA v1.10,2013-02-11 20:05:00,
2013-02-11 15:10:00,43.1,42.0,29.72,WSW,251,3.4,3.4,97,-99.99,,,-99.99,PWS SA v1.10,2013-02-11 20:10:00,
2013-02-11 15:15:00,43.5,42.4,29.72,North,0,0.0,3.0,97,-99.99,,,-99.99,PWS SA v1.10,2013-02-11 20:15:00,
2013-02-11 15:20:00,43.5,42.2,29.72,North,0,0.0,3.0,95,-99.99,,,-99.99,PWS SA v1.10,2013-02-11 20:20:00,
2013-02-11 15:30:00,43.6,42.4,29.71,North,0,0.0,3.0,96,-99.99,,,-99.99,PWS SA v1.10,2013-02-11 20:30:00,
2013-02-11 15:35:00,43.5,42.0,29.71,North,0,0.0,3.0,96,-99.99,,,-99.99,PWS SA v1.10,2013-02-11 20:35:00,
2013-02-11 15:40:00,43.5,42.0,29.71,SSW,202,1.7,3.0,96,-99.99,,,-99.99,PWS SA v1.10,2013-02-11 20:40:00,
2013-02-11 15:45:00,43.4,41.7,29.71,North,0,0.0,3.0,95,-99.99,,,-99.99,PWS SA v1.10,2013-02-11 20:45:00,
2013-02-11 15:50:00,42.6,41.2,29.71,West,267,5.1,5.1,95,-99.99,,,-99.99,PWS SA v1.10,2013-02-11 20:50:00,
2013-02-11 15:55:00,43.1,42.2,29.70,WSW,253,1.7,5.0,97,-99.99,,,-99.99,PWS SA v1.10,2013-02-11 20:55:00,
2013-02-11 16:00:00,43.4,42.8,29.70,SW,218,1.7,5.0,98,-99.99,,,-99.99,PWS SA v1.10,2013-02-11 21:00:00,
2013-02-11 16:05:00,43.3,41.9,29.69,North,0,0.0,5.0,96,-99.99,,,-99.99,PWS SA v1.10,2013-02-11 21:05:00,
2013-02-11 16:10:00,43.0,41.2,29.69,North,0,0.0,5.0,94,-99.99,,,-99.99,PWS SA v1.10,2013-02-11 21:10:00,
2013-02-11 16:15:00,43.0,41.1,29.69,North,0,0.0,5.0,94,-99.99,,,-99.99,PWS SA v1.10,2013-02-11 21:15:00,
2013-02-11 16:20:00,42.8,41.0,29.68,North,0,0.0,0.0,94,-99.99,,,-99.99,PWS SA v1.10,2013-02-11 21:20:00,
2013-02-11 16:25:00,42.5,40.6,29.68,North,0,0.0,0.0,94,-99.99,,,-99.99,PWS SA v1.10,2013-02-11 21:25:00,
2013-02-11 16:30:00,42.2,40.2,29.68,North,0,0.0,0.0,93,-99.99,,,-99.99,PWS SA v1.10,2013-02-11 21:30:00,
2013-02-11 16:35:00,42.0,39.7,29.67,North,0,0.0,0.0,93,-99.99,,,-99.99,PWS SA v1.10,2013-02-11 21:35:00,
2013-02-11 16:40:00,41.6,39.4,29.67,North,0,0.0,0.0,93,-99.99,,,-99.99,PWS SA v1.10,2013-02-11 21:40:00,
2013-02-11 16:45:00,41.7,39.8,29.67,North,0,0.0,0.0,95,-99.99,,,-99.99,PWS SA v1.10,2013-02-11 21:45:00,
2013-02-11 16:50:00,41.6,40.1,29.67,North,0,0.0,0.0,95,-99.99,,,-99.99,PWS SA v1.10,2013-02-11 21:50:00,
2013-02-11 16:55:00,41.6,39.9,29.66,North,0,0.0,0.0,95,-99.99,,,-99.99,PWS SA v1.10,2013-02-11 21:55:00,
2013-02-11 17:00:00,41.7,40.5,29.66,North,0,0.0,3.0,97,-99.99,,,-99.99,PWS SA v1.10,2013-02-11 22:00:00,
2013-02-11 17:05:00,41.6,40.0,29.66,North,0,0.0,3.0,96,-99.99,,,-99.99,PWS SA v1.10,2013-02-11 22:05:00,
2013-02-11 17:10:00,41.6,40.0,29.66,North,0,0.0,3.0,96,-99.99,,,-99.99,PWS SA v1.10,2013-02-11 22:10:00,
2013-02-11 17:15:00,41.3,39.8,29.65,North,0,0.0,1.0,95,-99.99,,,-99.99,PWS SA v1.10,2013-02-11 22:15:00,
2013-02-11 17:25:00,41.4,40.0,29.64,North,0,0.0,1.0,96,-99.99,,,-99.99,PWS SA v1.10,2013-02-11 22:25:00,
2013-02-11 17:30:00,41.3,39.6,29.65,North,0,0.0,1.0,95,-99.99,,,-99.99,PWS SA v1.10,2013-02-11 22:30:00,
2013-02-11 17:35:00,41.0,39.1,29.65,North,0,0.0,1.0,95,-99.99,,,-99.99,PWS SA v1.10,2013-02-11 22:35:00,
2013-02-11 17:40:00,41.0,39.0,29.65,North,0,0.0,0.0,95,-99.99,,,-99.99,PWS SA v1.10,2013-02-11 22:40:00,
2013-02-11 17:45:00,40.6,38.8,29.64,North,0,0.0,0.0,95,-99.99,,,-99.99,PWS SA v1.10,2013-02-11 22:45:00,
2013-02-11 17:50:00,40.4,38.7,29.65,North,0,0.0,0.0,95,-99.99,,,-99.99,PWS SA v1.10,2013-02-11 22:50:00,
2013-02-11 17:55:00,40.3,38.4,29.64,North,0,0.0,0.0,95,-99.99,,,-99.99,PWS SA v1.10,2013-02-11 22:55:00,
2013-02-11 18:00:00,40.2,38.5,29.65,North,0,0.0,0.0,95,-99.99,,,-99.99,PWS SA v1.10,2013-02-11 23:00:00,
2013-02-11 18:05:00,40.1,38.2,29.64,North,0,0.0,0.0,95,-99.99,,,-99.99,PWS SA v1.10,2013-02-11 23:05:00,
2013-02-11 18:10:00,39.9,38.2,29.64,North,0,0.0,0.0,95,-99.99,,,-99.99,PWS SA v1.10,2013-02-11 23:10:00,
2013-02-11 18:15:00,39.8,38.1,29.63,North,0,0.0,0.0,95,-99.99,,,-99.99,PWS SA v1.10,2013-02-11 23:15:00,
2013-02-11 18:20:00,39.7,38.1,29.63,North,0,0.0,0.0,95,-99.99,,,-99.99,PWS SA v1.10,2013-02-11 23:20:00,
2013-02-11 18:25:00,39.6,37.8,29.63,North,0,0.0,1.0,95,-99.99,,,-99.99,PWS SA v1.10,2013-02-11 23:25:00,
2013-02-11 18:30:00,39.5,37.8,29.64,North,0,0.0,1.0,95,-99.99,,,-99.99,PWS SA v1.10,2013-02-11 23:30:00,
2013-02-11 18:35:00,39.5,37.8,29.64,North,0,0.0,1.0,95,-99.99,,,-99.99,PWS SA v1.10,2013-02-11 23:35:00,
2013-02-11 18:40:00,39.5,37.8,29.64,North,0,0.0,0.0,95,-99.99,,,-99.99,PWS SA v1.10,2013-02-11 23:40:00,
2013-02-11 18:45:00,39.3,37.6,29.63,North,0,0.0,0.0,95,-99.99,,,-99.99,PWS SA v1.10,2013-02-11 23:45:00,
2013-02-11 18:50:00,39.1,37.9,29.63,North,0,0.0,0.0,96,-99.99,,,-99.99,PWS SA v1.10,2013-02-11 23:50:00,
2013-02-11 18:55:00,39.3,37.7,29.63,North,0,0.0,0.0,96,-99.99,,,-99.99,PWS SA v1.10,2013-02-11 23:55:00,
2013-02-11 19:00:00,39.2,37.5,29.63,North,0,0.0,0.0,95,-99.99,,,-99.99,PWS SA v1.10,2013-02-12 00:00:00,
2013-02-11 19:05:00,39.1,37.5,29.63,North,0,0.0,0.0,95,-99.99,,,-99.99,PWS SA v1.10,2013-02-12 00:05:00,
2013-02-11 19:10:00,39.1,37.4,29.63,North,0,0.0,0.0,95,-99.99,,,-99.99,PWS SA v1.10,2013-02-12 00:10:00,
2013-02-11 19:15:00,39.1,37.5,29.62,North,0,0.0,0.0,95,-99.99,,,-99.99,PWS SA v1.10,2013-02-12 00:15:00,
2013-02-11 19:20:00,39.1,37.5,29.63,North,0,0.0,0.0,95,-99.99,,,-99.99,PWS SA v1.10,2013-02-12 00:20:00,
2013-02-11 19:25:00,38.9,37.5,29.63,North,0,0.0,0.0,96,-99.99,,,-99.99,PWS SA v1.10,2013-02-12 00:25:00,
2013-02-11 19:30:00,39.1,38.2,29.61,SW,231,1.7,1.7,97,-99.99,,,-99.99,PWS SA v1.10,2013-02-12 00:30:00,
2013-02-11 19:35:00,39.4,38.8,29.61,West,259,3.4,3.4,99,-99.99,,,-99.99,PWS SA v1.10,2013-02-12 00:35:00,
2013-02-11 19:40:00,40.0,39.7,29.61,North,0,0.0,3.0,100,-99.99,,,-99.99,PWS SA v1.10,2013-02-12 00:40:00,
2013-02-11 19:45:00,40.4,39.8,29.61,West,269,3.4,3.4,99,-99.99,,,-99.99,PWS SA v1.10,2013-02-12 00:45:00,
2013-02-11 19:50:00,40.8,40.1,29.60,North,0,0.0,3.0,99,-99.99,,,-99.99,PWS SA v1.10,2013-02-12 00:50:00,
2013-02-11 19:55:00,41.0,40.2,29.60,WSW,254,1.7,3.0,98,-99.99,,,-99.99,PWS SA v1.10,2013-02-12 00:55:00,
2013-02-11 20:00:00,41.0,39.8,29.60,North,0,0.0,3.0,97,-99.99,,,-99.99,PWS SA v1.10,2013-02-12 01:00:00,
2013-02-11 20:05:00,41.0,39.6,29.60,North,0,0.0,6.0,96,-99.99,,,-99.99,PWS SA v1.10,2013-02-12 01:05:00,
2013-02-11 20:10:00,40.8,39.8,29.59,West,276,1.7,6.0,97,-99.99,,,-99.99,PWS SA v1.10,2013-02-12 01:10:00,
2013-02-11 20:15:00,41.3,40.6,29.59,SW,216,1.7,6.0,99,-99.99,,,-99.99,PWS SA v1.10,2013-02-12 01:15:00,
2013-02-11 20:20:00,41.8,41.5,29.59,SW,228,1.7,3.0,100,-99.99,,,-99.99,PWS SA v1.10,2013-02-12 01:20:00,
2013-02-11 20:25:00,41.9,41.3,29.58,North,0,0.0,3.0,99,-99.99,,,-99.99,PWS SA v1.10,2013-02-12 01:25:00,
2013-02-11 20:30:00,42.1,41.4,29.58,SW,231,3.4,3.4,99,-99.99,,,-99.99,PWS SA v1.10,2013-02-12 01:30:00,
2013-02-11 20:35:00,42.3,41.7,29.58,WNW,293,3.4,3.4,99,-99.99,,,-99.99,PWS SA v1.10,2013-02-12 01:35:00,
2013-02-11 20:40:00,42.2,41.5,29.58,WSW,245,1.7,3.0,97,-99.99,,,-99.99,PWS SA v1.10,2013-02-12 01:40:00,
2013-02-11 20:45:00,42.2,41.5,29.57,WSW,250,1.7,3.0,98,-99.99,,,-99.99,PWS SA v1.10,2013-02-12 01:45:00,
2013-02-11 20:50:00,42.5,41.5,29.58,North,0,0.0,3.0,98,-99.99,,,-99.99,PWS SA v1.10,2013-02-12 01:50:00,
2013-02-11 20:55:00,42.2,41.5,29.58,SW,218,3.4,3.4,98,-99.99,,,-99.99,PWS SA v1.10,2013-02-12 01:55:00,
2013-02-11 21:00:00,42.5,42.0,29.57,WSW,244,3.4,3.4,100,-99.99,,,-99.99,PWS SA v1.10,2013-02-12 02:00:00,
2013-02-11 21:05:00,42.5,42.1,29.57,North,0,0.0,5.0,99,-99.99,,,-99.99,PWS SA v1.10,2013-02-12 02:05:00,
2013-02-11 21:10:00,42.9,42.4,29.57,WSW,249,5.1,5.1,99,-99.99,,,-99.99,PWS SA v1.10,2013-02-12 02:10:00,
2013-02-11 21:15:00,42.9,42.4,29.57,North,0,0.0,5.0,99,-99.99,,,-99.99,PWS SA v1.10,2013-02-12 02:15:00,
2013-02-11 21:20:00,42.7,42.3,29.57,WNW,294,5.1,5.1,98,-99.99,,,-99.99,PWS SA v1.10,2013-02-12 02:20:00,
2013-02-11 21:25:00,42.9,42.6,29.58,SW,230,1.7,5.0,99,-99.99,,,-99.99,PWS SA v1.10,2013-02-12 02:25:00,
2013-02-11 21:30:00,43.0,42.8,29.57,North,0,0.0,5.0,99,-99.99,,,-99.99,PWS SA v1.10,2013-02-12 02:30:00,
2013-02-11 21:35:00,42.9,42.6,29.57,SW,229,3.4,5.0,99,-99.99,,,-99.99,PWS SA v1.10,2013-02-12 02:35:00,
2013-02-11 21:40:00,43.1,42.6,29.57,WSW,242,3.4,3.4,98,-99.99,,,-99.99,PWS SA v1.10,2013-02-12 02:40:00,
2013-02-11 21:45:00,43.3,42.4,29.57,North,0,0.0,3.0,98,-99.99,,,-99.99,PWS SA v1.10,2013-02-12 02:45:00,
2013-02-11 21:50:00,43.1,42.7,29.57,North,0,0.0,5.0,98,-99.99,,,-99.99,PWS SA v1.10,2013-02-12 02:50:00,
2013-02-11 21:55:00,43.1,42.7,29.57,West,262,1.7,5.0,99,-99.99,,,-99.99,PWS SA v1.10,2013-02-12 02:55:00,
2013-02-11 22:00:00,42.9,42.1,29.57,West,280,3.4,5.0,97,-99.99,,,-99.99,PWS SA v1.10,2013-02-12 03:00:00,
2013-02-11 22:05:00,42.7,41.8,29.56,West,267,5.1,5.1,98,-99.99,,,-99.99,PWS SA v1.10,2013-02-12 03:05:00,
2013-02-11 22:10:00,42.9,42.4,29.56,WSW,249,1.7,5.0,99,-99.99,,,-99.99,PWS SA v1.10,2013-02-12 03:10:00,
2013-02-11 22:15:00,42.9,42.1,29.57,WNW,302,3.4,5.0,97,-99.99,,,-99.99,PWS SA v1.10,2013-02-12 03:15:00,
2013-02-11 22:20:00,42.7,41.6,29.56,North,0,0.0,5.0,97,-99.99,,,-99.99,PWS SA v1.10,2013-02-12 03:20:00,
2013-02-11 22:25:00,42.8,41.8,29.56,North,0,0.0,3.0,97,-99.99,,,-99.99,PWS SA v1.10,2013-02-12 03:25:00,
2013-02-11 22:30:00,42.5,41.6,29.56,North,0,0.0,3.0,97,-99.99,,,-99.99,PWS SA v1.10,2013-02-12 03:30:00,
2013-02-11 22:35:00,42.2,41.8,29.56,NW,321,1.7,5.0,99,-99.99,,,-99.99,PWS SA v1.10,2013-02-12 03:35:00,
2013-02-11 22:40:00,42.3,42.0,29.56,WSW,239,3.4,5.0,99,-99.99,,,-99.99,PWS SA v1.10,2013-02-12 03:40:00,
2013-02-11 22:45:00,42.6,42.4,29.56,North,0,0.0,6.0,100,-99.99,,,-99.99,PWS SA v1.10,2013-02-12 03:45:00,
2013-02-11 22:50:00,43.0,42.5,29.55,North,0,0.0,6.0,99,-99.99,,,-99.99,PWS SA v1.10,2013-02-12 03:50:00,
2013-02-11 22:55:00,43.1,42.2,29.55,North,0,0.0,6.0,98,-99.99,,,-99.99,PWS SA v1.10,2013-02-12 03:55:00,
2013-02-11 23:00:00,42.7,41.9,29.56,North,0,0.0,1.0,97,-99.99,,,-99.99,PWS SA v1.10,2013-02-12 04:00:00,
2013-02-11 23:05:00,42.5,41.7,29.56,West,267,3.4,3.4,97,-99.99,,,-99.99,PWS SA v1.10,2013-02-12 04:05:00,
2013-02-11 23:10:00,42.5,41.4,29.55,North,0,0.0,3.0,96,-99.99,,,-99.99,PWS SA v1.10,2013-02-12 04:10:00,
2013-02-11 23:15:00,42.6,41.6,29.55,North,0,0.0,3.0,97,-99.99,,,-99.99,PWS SA v1.10,2013-02-12 04:15:00,
2013-02-11 23:20:00,42.5,41.3,29.55,North,0,0.0,3.0,97,-99.99,,,-99.99,PWS SA v1.10,2013-02-12 04:20:00,
2013-02-11 23:25:00,42.3,41.2,29.55,West,273,1.7,3.0,97,-99.99,,,-99.99,PWS SA v1.10,2013-02-12 04:25:00,
2013-02-11 23:30:00,42.3,40.7,29.56,North,0,0.0,3.0,96,-99.99,,,-99.99,PWS SA v1.10,2013-02-12 04:30:00,
2013-02-11 23:35:00,41.6,40.8,29.56,SW,228,5.1,5.1,98,-99.99,,,-99.99,PWS SA v1.10,2013-02-12 04:35:00,
2013-02-11 23:40:00,41.7,40.8,29.57,NW,326,1.7,5.0,97,-99.99,,,-99.99,PWS SA v1.10,2013-02-12 04:40:00,
2013-02-11 23:45:00,41.6,40.9,29.57,West,272,1.7,5.0,98,-99.99,,,-99.99,PWS SA v1.10,2013-02-12 04:45:00,
2013-02-11 23:50:00,41.8,41.2,29.57,North,0,0.0,5.0,98,-99.99,,,-99.99,PWS SA v1.10,2013-02-12 04:50:00,
2013-02-11 23:55:00,41.9,40.8,29.57,North,0,0.0,5.0,97,-99.99,,,-99.99,PWS SA v1.10,2013-02-12 04:55:00,